createdAt,value
2022-08-11T00:01:53.967Z,2.00
2022-08-11T00:04:23.901Z,2.10
2022-08-11T00:06:52.146Z,2.57
2022-08-11T00:09:22.359Z,2.10
2022-08-11T00:11:51.915Z,2.03
2022-08-11T00:14:22.402Z,1.83
2022-08-11T00:17:23.246Z,2.20
2022-08-11T00:20:11.513Z,2.00
2022-08-11T00:22:40.674Z,1.97
2022-08-11T00:25:10.801Z,2.10
2022-08-11T00:27:39.850Z,2.07
2022-08-11T00:30:08.682Z,2.20
2022-08-11T00:32:37.853Z,1.73
2022-08-11T00:35:52.013Z,2.10
2022-08-11T00:37:56.299Z,1.87
2022-08-11T00:40:29.135Z,2.00
2022-08-11T00:43:40.756Z,2.10
2022-08-11T00:46:28.481Z,2.20
2022-08-11T00:49:39.502Z,2.00
2022-08-11T00:52:47.606Z,2.17
2022-08-11T00:55:33.965Z,2.20
2022-08-11T00:58:29.509Z,2.20
2022-08-11T01:01:21.325Z,2.27
2022-08-11T01:04:06.781Z,2.43
2022-08-11T01:07:15.519Z,2.47
2022-08-11T01:10:43.249Z,2.10
2022-08-11T01:13:43.820Z,1.93
2022-08-11T01:16:16.270Z,2.40
2022-08-11T01:18:45.789Z,2.07
2022-08-11T01:21:31.265Z,2.10
2022-08-11T01:24:10.932Z,2.00
2022-08-11T01:26:55.702Z,2.20
2022-08-11T01:29:57.713Z,2.30
2022-08-11T01:32:55.449Z,2.40
2022-08-11T01:35:34.944Z,2.17
2022-08-11T01:38:41.758Z,2.23
2022-08-11T01:41:26.339Z,2.30
2022-08-11T01:44:18.556Z,2.43
2022-08-11T01:47:30.541Z,2.17
2022-08-11T01:50:36.778Z,1.93
2022-08-11T01:53:09.485Z,2.27
2022-08-11T01:56:17.572Z,2.07
2022-08-11T01:59:06.171Z,2.20
2022-08-11T02:01:58.370Z,2.27
2022-08-11T02:04:38.963Z,2.57
2022-08-11T02:07:26.413Z,2.30
2022-08-11T02:10:50.747Z,1.90
2022-08-11T02:13:42.515Z,2.37
2022-08-11T02:16:21.680Z,2.30
2022-08-11T02:19:20.003Z,2.00
2022-08-11T02:22:19.574Z,2.30
2022-08-11T02:25:11.453Z,1.97
2022-08-11T02:27:48.998Z,2.30
2022-08-11T02:30:17.946Z,2.60
2022-08-11T02:33:09.381Z,2.20
2022-08-11T02:35:48.318Z,2.63
2022-08-11T02:38:24.963Z,2.50
2022-08-11T02:41:35.452Z,2.57
2022-08-11T02:44:11.037Z,2.33
2022-08-11T02:46:56.543Z,2.20
2022-08-11T02:50:03.487Z,2.50
2022-08-11T02:52:59.678Z,2.43
2022-08-11T02:55:57.415Z,2.77
2022-08-11T02:58:44.746Z,2.30
2022-08-11T03:01:24.113Z,2.60
2022-08-11T03:04:00.664Z,2.63
2022-08-11T03:06:34.398Z,2.20
2022-08-11T03:09:09.713Z,2.30
2022-08-11T03:12:21.478Z,2.40
2022-08-11T03:15:18.865Z,2.37
2022-08-11T03:18:04.082Z,2.30
2022-08-11T03:20:44.865Z,2.40
2022-08-11T03:23:20.119Z,2.30
2022-08-11T03:25:59.113Z,2.27
2022-08-11T03:28:45.794Z,2.40
2022-08-11T03:31:28.889Z,2.20
2022-08-11T03:34:06.620Z,2.60
2022-08-11T03:37:06.813Z,2.73
2022-08-11T03:39:36.014Z,2.50
2022-08-11T03:42:10.277Z,2.97
2022-08-11T03:44:43.620Z,3.33
2022-08-11T03:47:19.186Z,2.87
2022-08-11T03:49:55.170Z,3.00
2022-08-11T03:52:51.938Z,2.70
2022-08-11T03:55:30.647Z,2.63
2022-08-11T03:58:19.195Z,2.87
2022-08-11T04:00:45.662Z,3.27
2022-08-11T04:03:12.125Z,3.00
2022-08-11T04:06:00.076Z,2.90
2022-08-11T04:08:47.567Z,2.43
2022-08-11T04:11:41.967Z,2.50
2022-08-11T04:14:30.098Z,2.20
2022-08-11T04:17:34.282Z,2.63
2022-08-11T04:20:31.261Z,2.70
2022-08-11T04:24:13.176Z,2.40
2022-08-11T04:26:18.524Z,2.87
2022-08-11T04:29:02.167Z,2.87
2022-08-11T04:31:56.594Z,2.60
2022-08-11T04:34:36.822Z,3.40
2022-08-11T04:37:29.567Z,3.20
2022-08-11T04:40:34.455Z,2.97
2022-08-11T04:44:02.452Z,2.47
2022-08-11T04:47:03.114Z,2.77
2022-08-11T04:49:57.566Z,2.50
2022-08-11T04:53:15.367Z,2.80
2022-08-11T04:56:35.817Z,3.00
2022-08-11T04:59:23.944Z,2.93
2022-08-11T05:02:02.388Z,3.17
2022-08-11T05:05:05.768Z,2.70
2022-08-11T05:07:59.468Z,3.00
2022-08-11T05:11:00.810Z,3.03
2022-08-11T05:13:57.277Z,3.20
2022-08-11T05:16:53.161Z,2.90
2022-08-11T05:19:56.758Z,3.00
2022-08-11T05:22:47.917Z,3.00
2022-08-11T05:26:44.262Z,2.80
2022-08-11T05:28:54.029Z,2.83
2022-08-11T05:31:43.875Z,2.90
2022-08-11T05:34:31.815Z,3.17
2022-08-11T05:37:25.610Z,2.93
2022-08-11T05:40:16.176Z,3.20
2022-08-11T05:43:08.413Z,2.90
2022-08-11T05:46:04.108Z,3.30
2022-08-11T05:48:55.086Z,3.30
2022-08-11T05:51:54.957Z,3.67
2022-08-11T05:54:41.997Z,3.30
2022-08-11T05:57:09.166Z,3.40
2022-08-11T05:59:36.152Z,3.97
2022-08-11T06:02:07.766Z,3.20
2022-08-11T06:04:34.672Z,3.70
2022-08-11T06:07:04.197Z,3.53
2022-08-11T06:09:35.852Z,3.30
2022-08-11T06:12:17.434Z,3.47
2022-08-11T06:14:46.187Z,3.40
2022-08-11T06:17:13.861Z,2.63
2022-08-11T06:19:42.143Z,3.07
2022-08-11T06:22:12.139Z,2.60
2022-08-11T06:24:42.922Z,2.77
2022-08-11T06:27:12.855Z,3.30
2022-08-11T06:29:55.395Z,2.87
2022-08-11T06:32:33.276Z,3.30
2022-08-11T06:35:15.792Z,3.03
2022-08-11T06:37:48.641Z,3.87
2022-08-11T06:40:27.763Z,3.30
2022-08-11T06:43:22.107Z,3.23
2022-08-11T06:45:53.680Z,3.30
2022-08-11T06:48:23.046Z,2.90
2022-08-11T06:51:12.917Z,2.80
2022-08-11T06:54:03.815Z,2.87
2022-08-11T06:57:26.400Z,2.93
2022-08-11T07:00:04.589Z,3.07
2022-08-11T07:02:34.393Z,3.47
2022-08-11T07:05:18.424Z,2.90
2022-08-11T07:08:51.580Z,2.80
2022-08-11T07:12:04.538Z,3.10
2022-08-11T07:14:50.543Z,3.30
2022-08-11T07:17:21.301Z,2.50
2022-08-11T07:20:12.447Z,2.73
2022-08-11T07:22:58.240Z,3.33
2022-08-11T07:25:43.898Z,2.90
2022-08-11T07:28:33.481Z,3.10
2022-08-11T07:31:14.289Z,2.77
2022-08-11T07:34:05.007Z,2.70
2022-08-11T07:36:41.244Z,2.70
2022-08-11T07:39:13.063Z,2.87
2022-08-11T07:41:39.748Z,2.77
2022-08-11T07:44:09.650Z,2.50
2022-08-11T07:46:58.526Z,3.07
2022-08-11T07:49:45.360Z,3.10
2022-08-11T07:52:28.899Z,3.07
2022-08-11T07:55:00.132Z,3.00
2022-08-11T07:58:16.018Z,3.20
2022-08-11T08:01:33.413Z,2.80
2022-08-11T08:04:18.990Z,2.80
2022-08-11T08:07:04.118Z,2.90
2022-08-11T08:09:55.457Z,3.10
2022-08-11T08:12:43.013Z,2.93
2022-08-11T08:15:33.230Z,3.20
2022-08-11T08:18:08.948Z,3.40
2022-08-11T08:20:50.160Z,3.10
2022-08-11T08:23:18.707Z,3.30
2022-08-11T08:25:45.727Z,2.83
2022-08-11T08:28:17.171Z,2.80
2022-08-11T08:30:56.170Z,2.90
2022-08-11T08:33:28.356Z,3.23
2022-08-11T08:36:18.648Z,2.77
2022-08-11T08:38:48.346Z,2.87
2022-08-11T08:41:19.964Z,2.70
2022-08-11T08:43:49.557Z,2.80
2022-08-11T08:46:19.461Z,3.13
2022-08-11T08:48:47.250Z,2.90
2022-08-11T08:52:00.919Z,2.90
2022-08-11T08:54:27.296Z,2.97
2022-08-11T08:56:55.651Z,2.90
2022-08-11T08:59:24.598Z,3.15
2022-08-11T09:02:06.018Z,3.15
2022-08-11T09:04:32.859Z,2.80
2022-08-11T09:07:03.304Z,3.20
2022-08-11T09:09:31.963Z,2.60
2022-08-11T09:11:58.753Z,2.92
2022-08-11T09:14:46.100Z,2.90
2022-08-11T09:17:13.507Z,2.78
2022-08-11T09:19:40.805Z,2.58
2022-08-11T09:22:28.094Z,2.92
2022-08-11T09:25:14.165Z,2.53
2022-08-11T09:27:41.782Z,2.63
2022-08-11T09:30:19.603Z,2.40
2022-08-11T09:32:46.978Z,2.40
2022-08-11T09:35:14.234Z,2.72
2022-08-11T09:37:59.560Z,2.80
2022-08-11T09:40:29.613Z,2.60
2022-08-11T09:43:20.307Z,2.67
2022-08-11T09:45:51.639Z,2.17
2022-08-11T09:48:21.657Z,2.08
2022-08-11T09:50:54.278Z,2.30
2022-08-11T09:53:37.319Z,2.53
2022-08-11T09:56:34.157Z,3.00
2022-08-11T09:59:03.289Z,2.35
2022-08-11T10:01:55.268Z,2.50
2022-08-11T10:04:36.343Z,2.40
2022-08-11T10:07:10.571Z,2.38
2022-08-11T10:09:52.835Z,2.38
2022-08-11T10:12:28.680Z,2.40
2022-08-11T10:15:15.867Z,2.42
2022-08-11T10:18:03.524Z,2.60
2022-08-11T10:20:33.296Z,2.63
2022-08-11T10:23:18.903Z,2.22
2022-08-11T10:26:05.765Z,2.38
2022-08-11T10:28:44.726Z,2.17
2022-08-11T10:31:56.783Z,2.25
2022-08-11T10:34:24.962Z,2.30
2022-08-11T10:36:55.210Z,2.40
2022-08-11T10:39:22.236Z,2.05
2022-08-11T10:42:10.737Z,2.20
2022-08-11T10:44:46.381Z,2.33
2022-08-11T10:47:33.295Z,2.25
2022-08-11T10:50:22.612Z,2.78
2022-08-11T10:53:09.241Z,2.45
2022-08-11T10:55:58.646Z,2.40
2022-08-11T10:58:44.118Z,2.42
2022-08-11T11:01:10.995Z,2.50
2022-08-11T11:03:37.931Z,2.40
2022-08-11T11:06:29.358Z,2.25
2022-08-11T11:09:05.556Z,2.72
2022-08-11T11:11:55.518Z,2.35
2022-08-11T11:14:46.167Z,3.22
2022-08-11T11:17:26.202Z,4.10
2022-08-11T11:19:57.540Z,2.80
2022-08-11T11:22:38.529Z,2.40
2022-08-11T11:25:23.162Z,2.53
2022-08-11T11:28:41.547Z,2.40
2022-08-11T11:31:34.525Z,2.70
2022-08-11T11:34:20.029Z,3.08
2022-08-11T11:36:50.700Z,2.63
2022-08-11T11:39:19.661Z,2.42
2022-08-11T11:41:46.400Z,2.47
2022-08-11T11:44:13.332Z,2.20
2022-08-11T11:46:40.817Z,2.33
2022-08-11T11:49:16.781Z,2.40
2022-08-11T11:51:44.846Z,2.20
2022-08-11T11:54:14.916Z,2.10
2022-08-11T11:56:42.822Z,2.60
2022-08-11T11:59:29.080Z,2.55
2022-08-11T12:01:56.191Z,2.10
2022-08-11T12:04:23.522Z,2.40
2022-08-11T12:06:50.533Z,2.35
2022-08-11T12:09:23.265Z,2.80
2022-08-11T12:12:09.515Z,2.50
2022-08-11T12:14:36.669Z,2.38
2022-08-11T12:17:03.295Z,2.47
2022-08-11T12:19:35.518Z,2.47
2022-08-11T12:22:20.978Z,2.65
2022-08-11T12:25:06.934Z,2.42
2022-08-11T12:27:33.549Z,2.30
2022-08-11T12:30:06.330Z,2.25
2022-08-11T12:32:35.807Z,2.30
2022-08-11T12:35:02.684Z,2.38
2022-08-11T12:37:39.805Z,2.25
2022-08-11T12:41:11.282Z,2.67
2022-08-11T12:43:39.269Z,2.75
2022-08-11T12:46:32.944Z,2.33
2022-08-11T12:49:25.469Z,2.70
2022-08-11T12:52:13.285Z,2.33
2022-08-11T12:55:35.505Z,2.42
2022-08-11T12:58:17.682Z,2.20
2022-08-11T13:01:04.316Z,2.40
2022-08-11T13:03:52.568Z,2.50
2022-08-11T13:06:24.518Z,2.30
2022-08-11T13:08:51.249Z,2.75
2022-08-11T13:11:55.804Z,2.10
2022-08-11T13:14:23.552Z,2.17
2022-08-11T13:17:08.677Z,2.30
2022-08-11T13:19:35.954Z,2.13
2022-08-11T13:22:05.364Z,2.53
2022-08-11T13:24:34.160Z,2.00
2022-08-11T13:27:02.176Z,2.58
2022-08-11T13:29:29.545Z,2.63
2022-08-11T13:32:00.715Z,2.40
2022-08-11T13:34:31.105Z,3.10
2022-08-11T13:37:00.327Z,2.78
2022-08-11T13:39:29.789Z,2.35
2022-08-11T13:41:59.495Z,2.45
2022-08-11T13:44:28.438Z,2.35
2022-08-11T13:46:58.382Z,2.70
2022-08-11T13:49:26.294Z,2.38
2022-08-11T13:51:53.329Z,2.40
2022-08-11T13:54:22.092Z,2.47
2022-08-11T13:56:52.949Z,2.35
2022-08-11T13:59:22.983Z,1.98
2022-08-11T14:02:20.564Z,2.45
2022-08-11T14:04:49.240Z,2.60
2022-08-11T14:07:19.118Z,2.38
2022-08-11T14:09:46.560Z,2.33
2022-08-11T14:12:44.291Z,2.00
2022-08-11T14:15:20.098Z,2.63
2022-08-11T14:18:07.816Z,2.30
2022-08-11T14:20:56.616Z,2.42
2022-08-11T14:23:28.349Z,2.40
2022-08-11T14:26:14.548Z,2.08
2022-08-11T14:28:45.028Z,2.17
2022-08-11T14:31:14.969Z,2.40
2022-08-11T14:33:58.120Z,2.10
2022-08-11T14:36:35.898Z,2.13
2022-08-11T14:39:06.433Z,2.13
2022-08-11T14:42:10.831Z,2.30
2022-08-11T14:45:02.361Z,2.22
2022-08-11T14:47:35.392Z,2.05
2022-08-11T14:50:11.488Z,1.80
2022-08-11T14:52:44.112Z,2.33
2022-08-11T14:55:29.884Z,2.03
2022-08-11T14:57:57.251Z,2.60
2022-08-11T15:00:24.508Z,2.22
2022-08-11T15:03:10.659Z,2.30
2022-08-11T15:05:56.494Z,2.30
2022-08-11T15:08:56.709Z,2.20
2022-08-11T15:11:43.774Z,2.10
2022-08-11T15:14:11.929Z,2.70
2022-08-11T15:17:00.201Z,2.50
2022-08-11T15:19:29.161Z,2.78
2022-08-11T15:22:24.902Z,2.30
2022-08-11T15:24:58.828Z,2.10
2022-08-11T15:27:44.405Z,2.40
2022-08-11T15:30:33.487Z,2.60
2022-08-11T15:33:22.419Z,2.30
2022-08-11T15:36:08.093Z,2.22
2022-08-11T15:38:36.731Z,2.30
2022-08-11T15:41:23.542Z,2.45
2022-08-11T15:44:12.047Z,2.45
2022-08-11T15:46:45.258Z,2.50
2022-08-11T15:49:12.837Z,2.28
2022-08-11T15:51:48.885Z,2.70
2022-08-11T15:54:21.139Z,2.60
2022-08-11T15:56:49.914Z,3.17
2022-08-11T15:59:41.840Z,3.20
2022-08-11T16:02:31.257Z,3.80
2022-08-11T16:04:59.819Z,2.53
2022-08-11T16:07:36.372Z,2.47
2022-08-11T16:10:18.699Z,2.35
2022-08-11T16:13:08.889Z,2.45
2022-08-11T16:15:57.458Z,2.50
2022-08-11T16:18:40.555Z,2.38
2022-08-11T16:21:36.202Z,2.20
2022-08-11T16:24:08.474Z,2.33
2022-08-11T16:27:11.606Z,2.17
2022-08-11T16:29:26.834Z,2.10
2022-08-11T16:32:14.461Z,2.08
2022-08-11T16:34:59.765Z,2.20
2022-08-11T16:37:45.429Z,2.22
2022-08-11T16:40:12.520Z,2.45
2022-08-11T16:43:09.289Z,2.60
2022-08-11T16:45:57.298Z,2.30
2022-08-11T16:48:37.226Z,2.08
2022-08-11T16:51:08.969Z,2.30
2022-08-11T16:53:59.607Z,2.10
2022-08-11T16:56:26.649Z,2.30
2022-08-11T16:59:17.647Z,2.33
2022-08-11T17:01:57.612Z,1.95
2022-08-11T17:04:47.598Z,2.28
2022-08-11T17:07:40.269Z,2.13
2022-08-11T17:10:52.356Z,2.00
2022-08-11T17:13:35.791Z,2.30
2022-08-11T17:16:07.103Z,2.40
2022-08-11T17:18:56.548Z,2.42
2022-08-11T17:21:27.483Z,2.90
2022-08-11T17:24:08.983Z,2.40
2022-08-11T17:26:58.373Z,2.78
2022-08-11T17:29:55.114Z,2.30
2022-08-11T17:32:56.116Z,2.20
2022-08-11T17:35:34.073Z,2.17
2022-08-11T17:38:07.784Z,2.13
2022-08-11T17:40:38.995Z,1.90
2022-08-11T17:43:27.639Z,2.50
2022-08-11T17:46:14.295Z,1.92
2022-08-11T17:48:47.601Z,1.95
2022-08-11T17:51:37.988Z,2.45
2022-08-11T17:54:25.372Z,2.35
2022-08-11T17:57:20.170Z,2.45
2022-08-11T17:59:56.511Z,2.10
2022-08-11T18:02:48.689Z,2.33
2022-08-11T18:05:18.301Z,2.65
2022-08-11T18:08:04.519Z,2.15
2022-08-11T18:10:51.088Z,2.80
2022-08-11T18:13:41.417Z,2.42
2022-08-11T18:16:27.546Z,2.17
2022-08-11T18:19:13.196Z,2.35
2022-08-11T18:22:12.935Z,2.45
2022-08-11T18:25:05.978Z,2.58
2022-08-11T18:27:53.402Z,2.30
2022-08-11T18:30:38.686Z,2.20
2022-08-11T18:33:50.654Z,2.42
2022-08-11T18:36:36.108Z,2.10
2022-08-11T18:39:22.003Z,2.40
2022-08-11T18:42:07.816Z,2.78
2022-08-11T18:44:53.367Z,2.00
2022-08-11T18:47:40.635Z,2.80
2022-08-11T18:50:38.870Z,2.72
2022-08-11T18:53:25.330Z,2.28
2022-08-11T18:56:12.299Z,2.55
2022-08-11T18:59:01.081Z,2.58
2022-08-11T19:01:47.895Z,2.50
2022-08-11T19:04:37.780Z,2.60
2022-08-11T19:07:23.671Z,2.28
2022-08-11T19:10:09.991Z,2.58
2022-08-11T19:12:59.590Z,2.60
2022-08-11T19:15:44.897Z,2.88
2022-08-11T19:18:35.671Z,2.58
2022-08-11T19:21:21.360Z,2.33
2022-08-11T19:24:10.451Z,2.67
2022-08-11T19:26:56.389Z,2.45
2022-08-11T19:30:11.814Z,2.60
2022-08-11T19:32:48.459Z,2.75
2022-08-11T19:35:34.945Z,2.47
2022-08-11T19:38:21.911Z,2.40
2022-08-11T19:41:06.989Z,2.50
2022-08-11T19:43:53.229Z,2.90
2022-08-11T19:46:40.539Z,2.78
2022-08-11T19:49:27.229Z,3.20
2022-08-11T19:52:13.053Z,3.28
2022-08-11T19:54:59.683Z,2.88
2022-08-11T19:57:44.702Z,2.88
2022-08-11T20:00:35.460Z,3.00
2022-08-11T20:03:23.546Z,2.80
2022-08-11T20:06:09.133Z,3.33
2022-08-11T20:08:58.536Z,2.90
2022-08-11T20:11:45.578Z,3.42
2022-08-11T20:14:31.428Z,4.10
2022-08-11T20:17:17.539Z,3.80
2022-08-11T20:20:02.773Z,4.20
2022-08-11T20:22:49.544Z,3.22
2022-08-11T20:25:35.513Z,3.60
2022-08-11T20:28:22.861Z,3.22
2022-08-11T20:31:09.405Z,3.25
2022-08-11T20:33:54.997Z,2.75
2022-08-11T20:36:40.753Z,3.45
2022-08-11T20:39:26.303Z,4.20
2022-08-11T20:42:12.430Z,3.55
2022-08-11T20:44:58.305Z,3.17
2022-08-11T20:47:58.882Z,3.65
2022-08-11T20:50:46.424Z,4.47
2022-08-11T20:56:38.845Z,4.13
2022-08-11T20:59:25.993Z,3.67
2022-08-11T21:02:11.380Z,3.65
2022-08-11T21:05:00.119Z,3.20
2022-08-11T21:07:55.598Z,4.15
2022-08-11T21:10:46.747Z,3.75
2022-08-11T21:13:32.702Z,3.47
2022-08-11T21:16:26.028Z,3.25
2022-08-11T21:19:59.569Z,3.70
2022-08-11T21:22:28.272Z,4.30
2022-08-11T21:25:15.303Z,3.88
2022-08-11T21:28:00.979Z,3.40
2022-08-11T21:30:47.183Z,3.20
2022-08-11T21:33:32.555Z,3.25
2022-08-11T21:36:21.591Z,3.28
2022-08-11T21:39:08.294Z,3.80
2022-08-11T21:41:53.376Z,3.78
2022-08-11T21:44:38.821Z,3.60
2022-08-11T21:47:43.424Z,3.28
2022-08-11T21:50:29.715Z,3.05
2022-08-11T21:53:16.400Z,2.85
2022-08-11T21:56:02.575Z,2.88
2022-08-11T21:58:49.043Z,3.00
2022-08-11T22:01:34.625Z,2.72
2022-08-11T22:04:20.058Z,3.00
2022-08-11T22:07:05.892Z,2.83
2022-08-11T22:09:51.343Z,2.70
2022-08-11T22:12:41.039Z,2.90
2022-08-11T22:15:29.914Z,3.20
2022-08-11T22:18:15.221Z,2.72
2022-08-11T22:21:01.525Z,3.00
2022-08-11T22:23:48.122Z,2.97
2022-08-11T22:26:36.504Z,2.97
2022-08-11T22:29:41.341Z,2.60
2022-08-11T22:32:31.538Z,2.77
2022-08-11T22:35:18.583Z,2.70
2022-08-11T22:38:05.090Z,2.97
2022-08-11T22:40:51.530Z,2.90
2022-08-11T22:43:37.336Z,3.10
2022-08-11T22:46:23.389Z,2.60
2022-08-11T22:49:09.467Z,3.33
2022-08-11T22:51:55.848Z,3.03
2022-08-11T22:54:40.993Z,2.97
2022-08-11T22:57:26.180Z,3.70
2022-08-11T23:00:12.147Z,3.03
2022-08-11T23:02:58.220Z,3.33
2022-08-11T23:05:44.428Z,2.93
2022-08-11T23:08:29.634Z,3.10
2022-08-11T23:11:15.694Z,3.20
2022-08-11T23:14:02.714Z,3.20
2022-08-11T23:16:49.315Z,3.33
2022-08-11T23:20:10.031Z,3.07
2022-08-11T23:22:49.807Z,2.90
2022-08-11T23:25:36.316Z,3.23
2022-08-11T23:28:21.997Z,3.20
2022-08-11T23:31:09.836Z,3.00
2022-08-11T23:33:56.854Z,2.90
2022-08-11T23:36:47.282Z,3.07
2022-08-11T23:39:34.228Z,2.63
2022-08-11T23:42:20.608Z,3.27
2022-08-11T23:45:09.745Z,3.30
2022-08-11T23:47:57.013Z,2.73
2022-08-11T23:50:43.534Z,2.90
2022-08-11T23:53:29.146Z,2.97
2022-08-11T23:56:14.203Z,3.00
2022-08-11T23:58:59.636Z,2.73
